Карточка аэропорта UMII

Внимание!
Информация на этой странице в стадии наполнения.
Если вы не увидели какой-то информации, или заметили неточность - пожалуйста сообщите нам!
Спасибо!
Команда RU-STAFF
Название аэропортаVitebsk
Название аэропорта (англ.)Vitebsk
Превышение682 ft. (207.9 m.)
Координаты55°7.5839999999998', 30°20.982'
Высота перехода6000 ft
Эшелон переходаFL80; QNH<977hPa - FL90
Коды ответчика0033; 6230-6277
Зона ОрВДМинск РПИ (UMMV)
Данные METARUMII 170500Z 03004G07MPS 9999 BKN012 BKN027CB 18/17 Q1010 TEMPO 2000 SHRA BKN005
Проноз погоды (TAF)
NOTAMshow/hide NOTAM
AWOS   TABLE

Информация о ВПП

ВПП Длина ВПП (м.) Покрытие Курс ВПП Частота ILS
052606Цементобетон53 
232606Цементобетон233111.9

Диспетчерские позиции




Спутниковое изображение